createdAt,value
2022-11-27T00:00:54.300Z,10.63
2022-11-27T00:03:56.946Z,11.25
2022-11-27T00:06:58.473Z,11.52
2022-11-27T00:09:59.996Z,10.10
2022-11-27T00:13:01.508Z,10.10
2022-11-27T00:16:04.453Z,9.25
2022-11-27T00:19:06.013Z,9.70
2022-11-27T00:22:07.548Z,9.80
2022-11-27T00:25:09.361Z,10.02
2022-11-27T00:28:10.854Z,10.53
2022-11-27T00:31:18.276Z,9.98
2022-11-27T00:34:19.852Z,11.88
2022-11-27T00:37:21.393Z,10.20
2022-11-27T00:40:22.956Z,10.85
2022-11-27T00:43:24.513Z,11.10
2022-11-27T00:46:31.197Z,10.60
2022-11-27T00:49:32.781Z,10.43
2022-11-27T00:52:34.332Z,10.15
2022-11-27T00:55:35.848Z,9.93
2022-11-27T00:58:37.335Z,10.10
2022-11-27T01:01:42.051Z,10.07
2022-11-27T01:04:47.491Z,9.65
2022-11-27T01:07:49.074Z,9.63
2022-11-27T01:10:54.880Z,9.60
2022-11-27T01:13:59.273Z,9.63
2022-11-27T01:17:00.884Z,8.30
2022-11-27T01:20:02.476Z,8.67
2022-11-27T01:23:04.015Z,8.52
2022-11-27T01:26:08.351Z,8.88
2022-11-27T01:29:10.970Z,8.50
2022-11-27T01:32:12.528Z,6.95
2022-11-27T01:35:14.096Z,6.72
2022-11-27T01:38:15.613Z,6.57
2022-11-27T01:41:23.644Z,7.20
2022-11-27T01:44:25.155Z,5.93
2022-11-27T01:47:52.996Z,6.50
2022-11-27T01:50:54.537Z,6.23
2022-11-27T01:53:56.597Z,6.28
2022-11-27T01:57:04.901Z,6.55
2022-11-27T02:00:09.102Z,6.73
2022-11-27T02:03:16.952Z,6.50
2022-11-27T02:06:18.639Z,6.07
2022-11-27T02:09:20.140Z,6.10
2022-11-27T02:12:34.505Z,5.70
2022-11-27T02:16:03.435Z,6.25
2022-11-27T02:19:16.370Z,5.97
2022-11-27T02:22:44.861Z,5.67
2022-11-27T02:26:10.751Z,6.05
2022-11-27T02:29:15.281Z,6.10
2022-11-27T02:32:38.187Z,6.23
2022-11-27T02:35:48.123Z,6.10
2022-11-27T02:39:08.982Z,6.15
2022-11-27T02:42:19.192Z,6.28
2022-11-27T02:45:29.126Z,5.80
2022-11-27T02:48:35.874Z,5.40
2022-11-27T02:51:47.502Z,5.10
2022-11-27T02:54:51.740Z,4.60
2022-11-27T02:57:56.500Z,4.85
2022-11-27T03:00:59.746Z,4.78
2022-11-27T03:04:07.184Z,4.77
2022-11-27T03:07:26.327Z,5.50
2022-11-27T03:10:36.648Z,5.07
2022-11-27T03:13:43.493Z,5.68
2022-11-27T03:17:01.106Z,5.18
2022-11-27T03:20:26.589Z,5.55
2022-11-27T03:23:28.393Z,5.50
2022-11-27T03:26:31.176Z,5.27
2022-11-27T03:29:47.806Z,5.38
2022-11-27T03:32:49.544Z,5.43
2022-11-27T03:35:52.613Z,5.90
2022-11-27T03:38:55.634Z,5.25
2022-11-27T03:42:29.566Z,5.55
2022-11-27T03:45:33.733Z,6.07
2022-11-27T03:48:35.205Z,5.90
2022-11-27T03:51:51.001Z,5.55
2022-11-27T03:55:16.748Z,5.53
2022-11-27T03:58:31.354Z,5.70
2022-11-27T04:01:33.142Z,5.68
2022-11-27T04:04:34.742Z,5.60
2022-11-27T04:07:36.399Z,5.57
2022-11-27T04:10:37.960Z,5.50
2022-11-27T04:13:39.517Z,5.03
2022-11-27T04:16:41.182Z,5.82
2022-11-27T04:19:42.784Z,5.45
2022-11-27T04:22:44.318Z,5.82
2022-11-27T04:25:45.946Z,5.35
2022-11-27T04:28:47.525Z,5.57
2022-11-27T04:31:49.118Z,5.30
2022-11-27T04:34:50.667Z,5.55
2022-11-27T04:37:52.502Z,4.97
2022-11-27T04:40:54.096Z,5.70
2022-11-27T04:43:55.613Z,5.35
2022-11-27T04:46:57.348Z,5.20
2022-11-27T04:49:58.921Z,5.22
2022-11-27T04:53:00.586Z,4.82
2022-11-27T04:56:02.113Z,5.18
2022-11-27T04:59:05.028Z,5.77
2022-11-27T05:02:06.563Z,4.90
2022-11-27T05:05:08.643Z,5.32
2022-11-27T05:08:10.204Z,5.27
2022-11-27T05:11:14.930Z,5.40
2022-11-27T05:14:19.982Z,5.80
2022-11-27T05:17:21.525Z,5.57
2022-11-27T05:20:23.017Z,5.45
2022-11-27T05:23:24.868Z,5.53
2022-11-27T05:26:26.455Z,5.60
2022-11-27T05:29:28.106Z,5.37
2022-11-27T05:32:29.621Z,5.38
2022-11-27T05:35:31.171Z,5.25
2022-11-27T05:38:32.687Z,5.80
2022-11-27T05:41:36.062Z,5.45
2022-11-27T05:44:37.998Z,5.63
2022-11-27T05:47:39.682Z,5.60
2022-11-27T05:50:41.204Z,5.20
2022-11-27T05:53:43.097Z,5.55
2022-11-27T05:56:44.654Z,5.55
2022-11-27T05:59:46.192Z,5.27
2022-11-27T06:02:47.802Z,5.03
2022-11-27T06:05:49.501Z,5.55
2022-11-27T06:08:51.032Z,5.90
2022-11-27T06:11:52.870Z,5.95
2022-11-27T06:14:54.384Z,6.60
2022-11-27T06:17:56.289Z,5.93
2022-11-27T06:20:57.864Z,6.20
2022-11-27T06:23:59.485Z,5.65
2022-11-27T06:27:01.128Z,5.70
2022-11-27T06:30:02.815Z,5.37
2022-11-27T06:33:04.343Z,5.78
2022-11-27T06:36:06.749Z,5.75
2022-11-27T06:39:11.184Z,5.43
2022-11-27T06:42:12.848Z,5.95
2022-11-27T06:45:14.632Z,5.88
2022-11-27T06:48:16.115Z,6.03
2022-11-27T06:51:23.483Z,5.90
2022-11-27T06:54:25.106Z,5.57
2022-11-27T06:57:26.626Z,7.10
2022-11-27T07:00:28.151Z,5.80
2022-11-27T07:03:30.042Z,6.53
2022-11-27T07:06:31.669Z,6.10
2022-11-27T07:09:33.223Z,6.20
2022-11-27T07:12:34.779Z,5.60
2022-11-27T07:15:36.367Z,5.20
2022-11-27T07:18:40.369Z,5.63
2022-11-27T07:21:41.938Z,10.35
2022-11-27T07:24:43.553Z,9.57
2022-11-27T07:27:45.549Z,7.88
2022-11-27T07:30:54.823Z,6.63
2022-11-27T07:33:56.903Z,7.13
2022-11-27T07:36:58.499Z,6.65
2022-11-27T07:40:03.269Z,7.57
2022-11-27T07:43:05.315Z,7.85
2022-11-27T07:46:10.643Z,8.48
2022-11-27T07:49:12.184Z,8.18
2022-11-27T07:52:13.738Z,8.20
2022-11-27T07:55:15.327Z,8.13
2022-11-27T07:58:16.877Z,8.45
2022-11-27T08:01:19.732Z,8.23
2022-11-27T08:04:21.416Z,7.28
2022-11-27T08:07:30.608Z,7.13
2022-11-27T08:10:35.936Z,7.50
2022-11-27T08:13:37.447Z,8.07
2022-11-27T08:16:39.142Z,7.65
2022-11-27T08:19:40.796Z,8.02
2022-11-27T08:22:42.323Z,7.88
2022-11-27T08:25:43.883Z,7.70
2022-11-27T08:28:45.420Z,8.18
2022-11-27T08:31:46.995Z,8.43
2022-11-27T08:34:48.548Z,7.80
2022-11-27T08:37:50.079Z,7.68
2022-11-27T08:41:03.039Z,7.07
2022-11-27T08:44:09.038Z,6.70
2022-11-27T08:47:10.978Z,7.50
2022-11-27T08:50:12.544Z,7.57
2022-11-27T08:53:14.345Z,6.65
2022-11-27T08:56:18.353Z,6.97
2022-11-27T08:59:19.931Z,7.25
2022-11-27T09:02:21.433Z,7.20
2022-11-27T09:05:22.952Z,7.00
2022-11-27T09:08:24.484Z,6.93
2022-11-27T09:11:27.899Z,8.10
2022-11-27T09:14:29.714Z,8.10
2022-11-27T09:17:31.265Z,8.55
2022-11-27T09:20:32.800Z,7.60
2022-11-27T09:23:34.427Z,8.38
2022-11-27T09:26:36.010Z,8.15
2022-11-27T09:29:37.662Z,7.65
2022-11-27T09:32:39.202Z,7.63
2022-11-27T09:35:40.762Z,7.72
2022-11-27T09:38:42.734Z,7.85
2022-11-27T09:41:52.023Z,8.13
2022-11-27T09:44:58.653Z,7.75
2022-11-27T09:48:05.285Z,8.25
2022-11-27T09:51:16.138Z,7.97
2022-11-27T09:54:27.150Z,8.23
2022-11-27T09:57:36.537Z,9.60
2022-11-27T10:00:38.060Z,9.52
2022-11-27T10:03:43.506Z,9.77
2022-11-27T10:06:59.040Z,10.52
2022-11-27T10:10:15.737Z,9.73
2022-11-27T10:14:05.611Z,9.40
2022-11-27T10:17:17.004Z,9.80
2022-11-27T10:20:32.162Z,11.27
2022-11-27T10:23:33.659Z,12.93
2022-11-27T10:26:41.941Z,10.07
2022-11-27T10:29:50.261Z,10.93
2022-11-27T10:32:56.396Z,10.15
2022-11-27T10:35:59.709Z,9.27
2022-11-27T10:39:03.189Z,10.02
2022-11-27T10:42:31.918Z,9.43
2022-11-27T10:45:45.463Z,10.43
2022-11-27T10:48:47.045Z,9.50
2022-11-27T10:51:48.612Z,9.77
2022-11-27T10:54:56.140Z,10.07
2022-11-27T10:58:09.944Z,10.07
2022-11-27T11:01:15.130Z,9.45
2022-11-27T11:04:37.876Z,9.68
2022-11-27T11:07:40.665Z,9.27
2022-11-27T11:11:02.537Z,9.27
2022-11-27T11:14:04.150Z,8.70
2022-11-27T11:17:17.663Z,8.93
2022-11-27T11:20:23.818Z,9.35
2022-11-27T11:23:30.872Z,9.38
2022-11-27T11:26:38.030Z,9.98
2022-11-27T11:29:55.920Z,9.07
2022-11-27T11:33:02.452Z,8.02
2022-11-27T11:36:10.723Z,9.25
2022-11-27T11:39:24.231Z,8.53
2022-11-27T11:42:32.862Z,8.60
2022-11-27T11:45:34.867Z,8.15
2022-11-27T11:48:37.779Z,8.70
2022-11-27T11:51:58.835Z,8.73
2022-11-27T11:55:13.273Z,8.30
2022-11-27T11:58:42.694Z,8.00
2022-11-27T12:02:06.060Z,7.53
2022-11-27T12:05:48.917Z,8.32
2022-11-27T12:08:56.544Z,8.32
2022-11-27T12:12:43.087Z,7.77
2022-11-27T12:15:59.724Z,7.05
2022-11-27T12:19:09.987Z,7.05
2022-11-27T12:22:38.848Z,6.60
2022-11-27T12:26:15.639Z,7.00
2022-11-27T12:29:45.610Z,6.72
2022-11-27T12:33:26.885Z,6.35
2022-11-27T12:37:19.402Z,7.05
2022-11-27T12:40:35.484Z,6.75
2022-11-27T12:43:45.588Z,7.00
2022-11-27T12:47:15.432Z,7.13
2022-11-27T12:50:30.201Z,6.78
2022-11-27T12:53:36.711Z,5.78
2022-11-27T12:56:50.514Z,6.87
2022-11-27T13:00:01.972Z,6.50
2022-11-27T13:03:16.247Z,7.63
2022-11-27T13:06:21.979Z,6.75
2022-11-27T13:09:37.324Z,6.22
2022-11-27T13:13:00.962Z,6.68
2022-11-27T13:16:11.088Z,7.13
2022-11-27T13:19:32.067Z,7.07
2022-11-27T13:22:36.414Z,6.60
2022-11-27T13:25:47.453Z,7.28
2022-11-27T13:28:57.478Z,6.40
2022-11-27T13:32:02.464Z,6.75
2022-11-27T13:35:08.210Z,6.18
2022-11-27T13:38:14.400Z,7.78
2022-11-27T13:41:24.789Z,6.63
2022-11-27T13:44:28.644Z,7.30
2022-11-27T13:47:38.128Z,6.68
2022-11-27T13:50:44.774Z,6.50
2022-11-27T13:53:46.344Z,6.72
2022-11-27T13:56:47.981Z,9.63
2022-11-27T13:59:57.629Z,7.20
2022-11-27T14:02:59.341Z,6.43
2022-11-27T14:06:00.940Z,7.20
2022-11-27T14:09:06.054Z,6.78
2022-11-27T14:12:18.129Z,6.40
2022-11-27T14:15:25.909Z,10.13
2022-11-27T14:18:29.930Z,10.70
2022-11-27T14:21:42.733Z,8.93
2022-11-27T14:24:45.875Z,8.18
2022-11-27T14:27:49.997Z,7.55
2022-11-27T14:30:54.252Z,7.87
2022-11-27T14:37:27.498Z,8.48
2022-11-27T14:40:29.010Z,6.93
2022-11-27T14:43:30.531Z,8.05
2022-11-27T14:46:37.033Z,8.13
2022-11-27T14:49:39.001Z,7.65
2022-11-27T14:52:43.836Z,6.77
2022-11-27T14:55:45.954Z,6.50
2022-11-27T14:58:52.124Z,6.60
2022-11-27T15:02:12.614Z,7.70
2022-11-27T15:05:28.779Z,7.88
2022-11-27T15:08:35.096Z,7.63
2022-11-27T15:11:55.007Z,8.27
2022-11-27T15:14:59.904Z,7.88
2022-11-27T15:18:08.019Z,8.52
2022-11-27T15:21:18.130Z,7.60
2022-11-27T15:24:29.518Z,9.20
2022-11-27T15:27:32.598Z,8.90
2022-11-27T15:30:44.261Z,9.20
2022-11-27T15:34:20.446Z,8.47
2022-11-27T15:37:25.155Z,8.30
2022-11-27T15:40:34.439Z,8.85
2022-11-27T15:43:35.899Z,8.50
2022-11-27T15:46:37.454Z,8.48
2022-11-27T15:49:38.923Z,8.73
2022-11-27T15:52:40.475Z,9.20
2022-11-27T15:55:42.044Z,8.80
2022-11-27T15:58:43.924Z,8.93
2022-11-27T16:01:45.613Z,9.25
2022-11-27T16:04:47.206Z,8.50
2022-11-27T16:07:53.612Z,8.35
2022-11-27T16:11:01.655Z,8.45
2022-11-27T16:14:03.346Z,9.15
2022-11-27T16:17:05.419Z,9.77
2022-11-27T16:20:07.862Z,8.95
2022-11-27T16:23:09.512Z,8.70
2022-11-27T16:26:12.632Z,8.17
2022-11-27T16:29:14.162Z,8.23
2022-11-27T16:32:16.127Z,8.63
2022-11-27T16:35:17.824Z,7.73
2022-11-27T16:38:20.966Z,8.20
2022-11-27T16:41:24.329Z,7.70
2022-11-27T16:44:28.519Z,7.78
2022-11-27T16:47:33.593Z,7.38
2022-11-27T16:50:36.015Z,8.45
2022-11-27T16:53:39.916Z,7.70
2022-11-27T16:56:41.948Z,7.03
2022-11-27T16:59:44.029Z,7.47
2022-11-27T17:02:45.686Z,7.35
2022-11-27T17:05:51.415Z,8.30
2022-11-27T17:08:54.749Z,7.00
2022-11-27T17:11:56.349Z,8.07
2022-11-27T17:15:00.912Z,9.95
2022-11-27T17:18:02.661Z,7.80
2022-11-27T17:21:07.339Z,7.60
2022-11-27T17:24:15.305Z,7.90
2022-11-27T17:27:18.894Z,7.60
2022-11-27T17:30:20.478Z,8.98
2022-11-27T17:33:22.330Z,8.57
2022-11-27T17:36:24.905Z,9.67
2022-11-27T17:39:26.947Z,12.50
2022-11-27T17:42:28.594Z,10.43
2022-11-27T17:45:30.214Z,7.78
2022-11-27T17:48:33.249Z,10.45
2022-11-27T17:51:35.923Z,8.60
2022-11-27T17:54:37.548Z,7.95
2022-11-27T17:57:40.137Z,10.10
2022-11-27T18:00:42.270Z,8.68
2022-11-27T18:03:46.147Z,7.95
2022-11-27T18:06:49.703Z,8.20
2022-11-27T18:09:54.183Z,8.63
2022-11-27T18:12:55.741Z,8.95
2022-11-27T18:16:03.975Z,8.20
2022-11-27T18:19:08.796Z,8.85
2022-11-27T18:22:12.573Z,9.73
2022-11-27T18:25:14.155Z,9.55
2022-11-27T18:28:15.666Z,9.30
2022-11-27T18:31:18.685Z,9.32
2022-11-27T18:34:20.207Z,9.50
2022-11-27T18:37:23.400Z,8.17
2022-11-27T18:40:24.916Z,8.70
2022-11-27T18:43:26.588Z,9.10
2022-11-27T18:46:28.737Z,9.70
2022-11-27T18:49:30.471Z,9.68
2022-11-27T18:52:32.102Z,9.48
2022-11-27T18:55:34.852Z,9.95
2022-11-27T18:58:37.939Z,9.20
2022-11-27T19:01:42.562Z,11.45
2022-11-27T19:04:44.929Z,9.50
2022-11-27T19:07:47.151Z,9.60
2022-11-27T19:10:48.862Z,9.52
2022-11-27T19:13:53.919Z,9.50
2022-11-27T19:16:56.377Z,9.07
2022-11-27T19:19:59.014Z,9.05
2022-11-27T19:23:01.131Z,8.90
2022-11-27T19:26:12.524Z,9.70
2022-11-27T19:29:15.040Z,9.60
2022-11-27T19:32:18.096Z,9.98
2022-11-27T19:35:25.092Z,10.18
2022-11-27T19:38:27.748Z,9.50
2022-11-27T19:41:30.125Z,9.85
2022-11-27T19:44:35.011Z,11.00
2022-11-27T19:47:37.896Z,9.75
2022-11-27T19:50:39.897Z,9.13
2022-11-27T19:53:42.274Z,9.50
2022-11-27T19:56:44.145Z,9.90
2022-11-27T19:59:46.676Z,9.00
2022-11-27T20:02:49.197Z,9.65
2022-11-27T20:06:01.803Z,10.13
2022-11-27T20:09:05.487Z,9.40
2022-11-27T20:12:07.515Z,8.93
2022-11-27T20:15:14.439Z,8.93
2022-11-27T20:18:16.377Z,9.60
2022-11-27T20:21:20.891Z,8.52
2022-11-27T20:24:22.421Z,9.30
2022-11-27T20:27:24.006Z,8.80
2022-11-27T20:30:26.024Z,9.40
2022-11-27T20:33:29.045Z,9.00
2022-11-27T20:36:32.732Z,8.85
2022-11-27T20:39:35.116Z,8.90
2022-11-27T20:42:36.689Z,8.82
2022-11-27T20:45:39.868Z,9.38
2022-11-27T20:49:30.570Z,9.18
2022-11-27T20:53:14.722Z,8.93
2022-11-27T20:56:26.934Z,9.30
2022-11-27T21:04:18.826Z,7.63
2022-11-27T21:07:52.443Z,9.48
2022-11-27T21:21:56.532Z,8.30
2022-11-27T21:24:58.084Z,8.93
2022-11-27T21:27:59.776Z,8.50
2022-11-27T21:31:18.000Z,8.57
2022-11-27T21:34:19.551Z,9.25
2022-11-27T21:37:21.164Z,9.48
2022-11-27T21:40:22.763Z,9.53
2022-11-27T21:43:24.390Z,9.57
2022-11-27T21:46:26.779Z,9.40
2022-11-27T21:49:30.233Z,9.23
2022-11-27T21:52:33.589Z,9.18
2022-11-27T21:55:40.992Z,10.00
2022-11-27T21:58:42.750Z,9.85
2022-11-27T22:01:45.484Z,9.45
2022-11-27T22:04:48.048Z,9.57
2022-11-27T22:07:49.779Z,9.65
2022-11-27T22:10:51.428Z,9.67
2022-11-27T22:13:57.927Z,10.07
2022-11-27T22:16:59.537Z,9.95
2022-11-27T22:20:01.173Z,9.87
2022-11-27T22:23:04.370Z,10.23
2022-11-27T22:26:12.322Z,10.25
2022-11-27T22:29:14.105Z,10.07
2022-11-27T22:32:15.919Z,9.60
2022-11-27T22:35:17.658Z,10.18
2022-11-27T22:38:19.615Z,9.95
2022-11-27T22:41:22.979Z,10.20
2022-11-27T22:44:24.748Z,8.82
2022-11-27T22:47:26.332Z,9.18
2022-11-27T22:50:27.956Z,8.93
2022-11-27T22:53:30.104Z,9.15
2022-11-27T22:56:33.732Z,8.93
2022-11-27T22:59:35.334Z,9.55
2022-11-27T23:02:39.468Z,8.65
2022-11-27T23:05:45.036Z,8.82
2022-11-27T23:08:48.275Z,8.65
2022-11-27T23:11:49.922Z,8.40
2022-11-27T23:14:51.555Z,8.98
2022-11-27T23:17:53.105Z,8.82
2022-11-27T23:20:54.652Z,8.33
2022-11-27T23:23:56.206Z,9.27
2022-11-27T23:26:57.730Z,9.35
2022-11-27T23:29:59.303Z,8.35
2022-11-27T23:33:00.819Z,8.02
2022-11-27T23:36:03.211Z,9.13
2022-11-27T23:39:06.843Z,8.70
2022-11-27T23:42:08.822Z,8.17
2022-11-27T23:45:10.943Z,8.55
2022-11-27T23:48:12.789Z,9.27
2022-11-27T23:51:17.559Z,8.13
2022-11-27T23:54:19.127Z,8.40
2022-11-27T23:57:20.712Z,8.23
